Time;durP1;ratioP1;P1;durP2;ratioP2;P2;SDS_P1;SDS_P2;PMS_P1;PMS_P2;Temp;Humidity;BMP_temperature;BMP_pressure;BME280_temperature;BME280_humidity;BME280_pressure;Samples;Min_cycle;Max_cycle;Signal;HPM_P1;HPM_P2
2022/04/16 00:00:49;;;;;;;6.25;3.58;;;9.90;99.90;;;;;;5055203;28;20032;-75
2022/04/16 00:03:22;;;;;;;6.20;3.75;;;9.90;99.90;;;;;;5056065;28;20013;-75
2022/04/16 00:05:52;;;;;;;5.50;3.47;;;9.80;99.90;;;;;;5055502;28;20029;-75
2022/04/16 00:08:22;;;;;;;6.57;3.90;;;9.80;99.90;;;;;;5055675;28;20017;-75
2022/04/16 00:10:48;;;;;;;8.32;4.35;;;9.80;99.90;;;;;;5055146;28;20371;-75
2022/04/16 00:13:14;;;;;;;7.50;3.55;;;9.70;99.90;;;;;;5055159;28;20063;-75
2022/04/16 00:15:40;;;;;;;7.28;4.07;;;9.70;99.90;;;;;;5055217;28;20430;-75
2022/04/16 00:18:06;;;;;;;7.93;4.43;;;9.60;99.90;;;;;;5037284;28;20025;-75
2022/04/16 00:20:34;;;;;;;11.23;4.60;;;9.60;99.90;;;;;;5054664;28;20048;-75
2022/04/16 00:22:59;;;;;;;8.82;4.35;;;9.60;99.90;;;;;;5054916;28;20397;-75
2022/04/16 00:25:25;;;;;;;10.55;4.40;;;9.50;99.90;;;;;;5055622;28;20024;-75
2022/04/16 00:27:50;;;;;;;11.32;4.88;;;9.50;99.90;;;;;;5055044;28;20500;-75
2022/04/16 00:30:19;;;;;;;7.10;3.88;;;9.50;99.90;;;;;;5054794;28;20029;-75
2022/04/16 00:32:44;;;;;;;8.60;4.18;;;9.40;99.90;;;;;;5054566;28;20442;-75
2022/04/16 00:35:11;;;;;;;9.98;4.45;;;9.40;99.90;;;;;;5055077;28;20061;-75
2022/04/16 00:37:37;;;;;;;7.45;4.32;;;9.40;99.90;;;;;;5054524;28;20563;-75
2022/04/16 00:40:03;;;;;;;7.88;4.35;;;9.40;99.90;;;;;;5055222;28;20021;-75
2022/04/16 00:42:39;;;;;;;9.65;4.57;;;9.30;99.90;;;;;;5054542;28;20057;-75
2022/04/16 00:45:06;;;;;;;9.40;3.95;;;9.30;99.90;;;;;;5036278;28;20017;-75
2022/04/16 00:47:31;;;;;;;8.73;5.00;;;9.30;99.90;;;;;;5054251;28;20128;-75
2022/04/16 00:49:57;;;;;;;6.32;3.90;;;9.30;99.90;;;;;;5054376;28;20063;-75
2022/04/16 00:52:22;;;;;;;11.10;4.63;;;9.30;99.90;;;;;;5054220;28;20535;-75
2022/04/16 00:54:50;;;;;;;7.15;4.40;;;9.20;99.90;;;;;;5054279;28;20032;-75
2022/04/16 00:57:17;;;;;;;12.02;4.93;;;9.10;99.90;;;;;;5054336;28;20511;-75
2022/04/16 00:59:42;;;;;;;10.13;4.93;;;9.10;99.90;;;;;;5054132;28;20025;-75
2022/04/16 01:02:09;;;;;;;14.68;5.10;;;9.10;99.90;;;;;;5054298;28;20113;-75
2022/04/16 01:04:35;;;;;;;14.32;5.05;;;9.00;99.90;;;;;;5036310;28;20017;-75
2022/04/16 01:07:01;;;;;;;13.38;5.60;;;9.00;99.90;;;;;;5036549;28;20116;-75
2022/04/16 01:09:26;;;;;;;10.52;4.55;;;8.90;99.90;;;;;;5036119;28;20020;-75
2022/04/16 01:11:52;;;;;;;10.00;5.20;;;8.80;99.90;;;;;;5054054;28;20029;-75
2022/04/16 01:14:19;;;;;;;10.85;4.50;;;8.70;99.90;;;;;;5054013;28;20025;-75
2022/04/16 01:16:45;;;;;;;9.50;4.80;;;8.60;99.90;;;;;;5035222;28;20025;-75
2022/04/16 01:19:11;;;;;;;8.20;5.13;;;8.60;99.90;;;;;;5035930;28;20025;-75
2022/04/16 01:21:37;;;;;;;10.98;5.13;;;8.50;99.90;;;;;;5053655;28;20032;-75
2022/04/16 01:24:05;;;;;;;9.00;4.97;;;8.40;99.90;;;;;;5053727;28;20025;-75
2022/04/16 01:26:31;;;;;;;9.83;5.03;;;8.40;99.90;;;;;;5054071;28;20009;-75
2022/04/16 01:28:57;;;;;;;10.80;4.95;;;8.30;99.90;;;;;;5054063;28;20013;-75
2022/04/16 01:31:22;;;;;;;9.93;4.80;;;8.30;99.90;;;;;;5053606;28;20497;-75
2022/04/16 01:33:48;;;;;;;7.70;4.47;;;8.30;99.90;;;;;;5053590;28;20047;-75
2022/04/16 01:36:13;;;;;;;10.18;5.30;;;8.20;99.90;;;;;;5053506;28;20053;-75
2022/04/16 01:38:39;;;;;;;8.23;4.57;;;8.20;99.90;;;;;;5035556;28;20017;-75
2022/04/16 01:41:05;;;;;;;8.88;4.78;;;8.20;99.90;;;;;;5053483;28;20108;-75
2022/04/16 01:43:30;;;;;;;13.52;5.22;;;8.10;99.90;;;;;;5053336;28;20076;-75
2022/04/16 01:45:56;;;;;;;11.32;5.10;;;8.10;99.90;;;;;;5054046;28;20029;-75
2022/04/16 01:48:27;;;;;;;10.25;5.07;;;8.00;99.90;;;;;;5053285;28;20355;-75
2022/04/16 01:50:53;;;;;;;10.27;5.40;;;7.90;99.90;;;;;;5053398;28;20031;-75
2022/04/16 01:53:19;;;;;;;10.68;5.25;;;7.80;99.90;;;;;;5053345;28;20013;-75
2022/04/16 01:55:45;;;;;;;11.43;5.10;;;7.80;99.90;;;;;;5054061;28;20025;-75
2022/04/16 01:58:11;;;;;;;12.15;5.15;;;7.70;99.90;;;;;;5053250;28;20021;-75
2022/04/16 02:00:37;;;;;;;7.15;4.32;;;7.60;99.90;;;;;;5035303;28;20063;-75
2022/04/16 02:03:02;;;;;;;10.10;4.80;;;7.60;99.90;;;;;;5053162;28;20103;-75
2022/04/16 02:05:28;;;;;;;10.82;4.95;;;7.50;99.90;;;;;;5053048;28;20024;-75
2022/04/16 02:07:54;;;;;;;8.88;4.88;;;7.40;99.90;;;;;;5035226;28;20028;-75
2022/04/16 02:10:20;;;;;;;9.95;5.60;;;7.40;99.90;;;;;;5053503;28;20374;-75
2022/04/16 02:12:46;;;;;;;13.63;5.45;;;7.30;99.90;;;;;;5053294;28;20355;-76
2022/04/16 02:15:12;;;;;;;11.23;4.93;;;7.30;99.90;;;;;;5053182;28;20123;-77
2022/04/16 02:17:37;;;;;;;10.90;5.90;;;7.20;99.90;;;;;;5053268;28;20474;-75
2022/04/16 02:20:08;;;;;;;10.45;5.70;;;7.20;99.90;;;;;;5034952;28;20025;-75
2022/04/16 02:22:44;;;;;;;11.32;5.57;;;7.10;99.90;;;;;;5053084;28;20033;-75
2022/04/16 02:25:11;;;;;;;10.43;5.05;;;7.10;99.90;;;;;;5052985;28;20047;-75
2022/04/16 02:27:37;;;;;;;9.93;5.20;;;7.10;99.90;;;;;;5054311;28;20056;-75
2022/04/16 02:30:04;;;;;;;9.07;5.07;;;7.00;99.90;;;;;;5056967;28;20063;-75
2022/04/16 02:32:31;;;;;;;13.02;4.97;;;7.00;99.90;;;;;;5056602;28;20070;-75
2022/04/16 02:34:56;;;;;;;13.30;6.30;;;7.00;99.90;;;;;;5057670;28;20059;-75
2022/04/16 02:37:22;;;;;;;14.27;5.95;;;6.90;99.90;;;;;;5038743;28;20025;-75
2022/04/16 02:39:48;;;;;;;14.00;5.72;;;6.90;99.90;;;;;;5056526;28;20032;-75
2022/04/16 02:42:13;;;;;;;15.70;6.63;;;6.80;99.90;;;;;;5056636;28;20355;-75
2022/04/16 02:47:23;;;;;;;11.35;5.93;;;6.80;99.90;;;;;;5057343;28;20089;-75
2022/04/16 02:49:48;;;;;;;15.57;6.97;;;6.70;99.90;;;;;;5056358;28;20028;-75
2022/04/16 02:52:14;;;;;;;10.75;5.38;;;6.60;99.90;;;;;;5056392;28;20029;-75
2022/04/16 02:54:42;;;;;;;13.52;5.60;;;6.70;99.90;;;;;;5038288;28;20596;-75
2022/04/16 02:57:07;;;;;;;10.77;5.80;;;6.60;99.90;;;;;;5056298;28;20087;-75
2022/04/16 02:59:35;;;;;;;14.35;6.03;;;6.60;99.90;;;;;;5056116;28;20021;-74
2022/04/16 03:02:01;;;;;;;13.57;6.18;;;6.60;99.90;;;;;;5056326;28;20567;-76
2022/04/16 03:04:26;;;;;;;14.95;7.32;;;6.60;99.90;;;;;;5056233;28;20029;-75
2022/04/16 03:06:52;;;;;;;12.27;5.65;;;6.60;99.90;;;;;;5056028;28;20025;-75
2022/04/16 03:09:18;;;;;;;13.57;6.88;;;6.60;99.90;;;;;;5038066;28;20108;-75
2022/04/16 03:11:43;;;;;;;13.93;6.20;;;6.60;99.90;;;;;;5055835;28;20040;-75
2022/04/16 03:19:55;;;;;;;12.63;6.38;;;6.60;99.90;;;;;;5049277;28;20075;-75
2022/04/16 03:22:21;;;;;;;12.50;6.13;;;6.60;99.90;;;;;;5037832;28;20051;-75
2022/04/16 03:24:47;;;;;;;15.13;6.85;;;6.60;99.90;;;;;;5056029;28;20413;-75
2022/04/16 03:27:12;;;;;;;20.88;7.80;;;6.60;99.90;;;;;;5037811;28;20428;-75
2022/04/16 03:29:38;;;;;;;17.92;7.88;;;6.60;99.90;;;;;;5037795;28;20048;-75
2022/04/16 03:32:04;;;;;;;17.75;6.55;;;6.60;99.90;;;;;;5037702;28;20352;-75
2022/04/16 03:34:30;;;;;;;14.10;6.40;;;6.60;99.90;;;;;;5055764;28;20036;-75
2022/04/16 03:36:57;;;;;;;26.27;7.03;;;6.60;99.90;;;;;;5037632;28;20029;-75
2022/04/16 03:39:22;;;;;;;17.27;6.28;;;6.60;99.90;;;;;;5054906;28;20112;-75
2022/04/16 03:41:48;;;;;;;15.07;7.38;;;6.70;99.90;;;;;;5037495;28;20057;-75
2022/04/16 03:44:14;;;;;;;17.65;7.25;;;6.60;99.90;;;;;;5055552;28;20028;-75
2022/04/16 03:46:39;;;;;;;13.88;6.88;;;6.60;99.90;;;;;;5037447;28;20106;-75
2022/04/16 03:49:05;;;;;;;15.25;7.47;;;6.60;99.90;;;;;;5037428;28;20017;-75
2022/04/16 03:51:30;;;;;;;13.10;6.72;;;6.60;99.90;;;;;;5037482;28;20502;-77
2022/04/16 03:59:59;;;;;;;17.77;7.82;;;6.60;99.90;;;;;;5055465;28;20029;-77
2022/04/16 04:02:10;;;;;;;18.88;7.97;;;6.60;99.90;;;;;;5055466;28;20071;-77
2022/04/16 04:04:35;;;;;;;17.05;7.20;;;6.60;99.90;;;;;;5037140;28;20417;-77
2022/04/16 04:07:01;;;;;;;17.48;9.18;;;6.60;99.90;;;;;;5036995;28;20517;-77
2022/04/16 04:09:26;;;;;;;15.43;7.40;;;6.60;99.90;;;;;;5054942;28;20029;-77
2022/04/16 04:11:52;;;;;;;18.13;6.72;;;6.60;99.90;;;;;;5055290;28;20017;-77
2022/04/16 04:14:17;;;;;;;13.57;7.15;;;6.60;99.90;;;;;;5037135;28;20025;-77
2022/04/16 04:16:43;;;;;;;17.67;7.80;;;6.50;99.90;;;;;;5055137;28;20173;-77
2022/04/16 04:19:09;;;;;;;16.45;7.55;;;6.50;99.90;;;;;;5036932;28;20021;-77
2022/04/16 04:21:34;;;;;;;14.60;7.32;;;6.50;99.90;;;;;;5054665;28;20025;-77
2022/04/16 04:24:00;;;;;;;17.25;7.75;;;6.50;99.90;;;;;;5054821;28;20021;-77
2022/04/16 04:26:25;;;;;;;17.20;7.25;;;6.50;99.90;;;;;;5054774;28;20024;-77
2022/04/16 04:28:51;;;;;;;16.77;8.10;;;6.50;99.90;;;;;;5036717;28;20021;-76
2022/04/16 04:31:17;;;;;;;19.35;8.32;;;6.40;99.90;;;;;;5036829;28;20031;-77
2022/04/16 04:33:42;;;;;;;14.90;7.35;;;6.40;99.90;;;;;;5054773;28;20029;-77
2022/04/16 04:36:08;;;;;;;13.70;7.18;;;6.40;99.90;;;;;;5054566;28;20052;-77
2022/04/16 04:38:34;;;;;;;16.52;8.10;;;6.40;99.90;;;;;;5036701;28;20074;-77
2022/04/16 04:41:00;;;;;;;15.60;8.00;;;6.40;99.90;;;;;;5054076;28;20017;-75
2022/04/16 04:43:27;;;;;;;26.20;8.10;;;6.40;99.90;;;;;;5054188;28;20036;-77
2022/04/16 04:45:52;;;;;;;19.50;8.48;;;6.40;99.90;;;;;;5054495;28;20025;-77
2022/04/16 04:48:18;;;;;;;16.40;7.20;;;6.30;99.90;;;;;;5054130;28;20079;-76
2022/04/16 04:50:43;;;;;;;20.77;8.32;;;6.30;99.90;;;;;;5036023;28;20033;-77
2022/04/16 04:53:09;;;;;;;15.68;7.05;;;6.30;99.90;;;;;;5054305;28;20425;-77
2022/04/16 04:55:34;;;;;;;16.08;8.43;;;6.30;99.90;;;;;;5036006;28;20064;-77
2022/04/16 04:58:00;;;;;;;16.73;8.23;;;6.30;99.90;;;;;;5036083;28;20493;-77
2022/04/16 05:00:26;;;;;;;17.00;7.45;;;6.30;99.90;;;;;;5035937;28;20017;-76
2022/04/16 05:02:51;;;;;;;15.63;7.35;;;6.30;99.90;;;;;;5035935;28;20035;-77
2022/04/16 05:05:17;;;;;;;19.85;9.10;;;6.30;99.90;;;;;;5053880;28;20059;-76
2022/04/16 05:07:43;;;;;;;19.58;8.50;;;6.30;99.90;;;;;;5053861;28;20028;-77
2022/04/16 05:10:09;;;;;;;22.02;8.68;;;6.40;99.90;;;;;;5035904;28;20115;-77
2022/04/16 05:12:35;;;;;;;21.35;8.18;;;6.40;99.90;;;;;;5035866;28;20063;-77
2022/04/16 05:15:01;;;;;;;18.35;9.07;;;6.50;99.90;;;;;;5035832;28;20367;-75
2022/04/16 05:17:27;;;;;;;21.17;8.98;;;6.50;99.90;;;;;;5053595;28;20017;-75
2022/04/16 05:19:52;;;;;;;19.30;8.75;;;6.60;99.90;;;;;;5053472;28;20028;-75
2022/04/16 05:22:18;;;;;;;20.08;9.23;;;6.60;99.90;;;;;;5053374;28;20512;-75
2022/04/16 05:24:45;;;;;;;20.35;8.93;;;6.70;99.90;;;;;;5053568;28;20017;-75
2022/04/16 05:27:10;;;;;;;18.60;8.70;;;6.70;99.90;;;;;;5053428;28;20021;-75
2022/04/16 05:32:21;;;;;;;20.33;8.75;;;6.80;99.90;;;;;;5053462;28;20556;-75
2022/04/16 05:34:47;;;;;;;19.50;8.60;;;6.90;99.90;;;;;;5053370;28;20017;-75
2022/04/16 05:37:12;;;;;;;18.25;9.52;;;6.90;99.90;;;;;;5053328;28;20103;-75
2022/04/16 05:39:38;;;;;;;21.33;9.68;;;6.90;99.90;;;;;;5035383;28;20478;-75
2022/04/16 05:42:04;;;;;;;20.63;9.77;;;7.00;99.90;;;;;;5053230;28;20071;-75
2022/04/16 05:44:30;;;;;;;24.77;10.40;;;7.10;99.90;;;;;;5035405;28;20075;-75
2022/04/16 05:46:55;;;;;;;19.70;9.48;;;7.10;99.90;;;;;;5035460;28;20017;-75
2022/04/16 05:49:21;;;;;;;21.00;9.32;;;7.20;99.90;;;;;;5053529;28;20032;-75
2022/04/16 05:51:47;;;;;;;19.13;10.02;;;7.20;99.90;;;;;;5053190;28;20442;-75
2022/04/16 05:54:12;;;;;;;21.75;9.98;;;7.20;99.90;;;;;;5053141;28;20021;-75
2022/04/16 05:56:38;;;;;;;20.50;9.82;;;7.40;99.90;;;;;;5053684;28;20032;-75
2022/04/16 05:59:04;;;;;;;22.83;10.30;;;7.40;99.90;;;;;;5053020;28;20029;-75
2022/04/16 06:01:29;;;;;;;21.48;10.18;;;7.40;99.90;;;;;;5035207;28;20514;-75
2022/04/16 06:03:55;;;;;;;18.58;9.65;;;7.50;99.90;;;;;;5057107;28;20120;-75
2022/04/16 06:06:20;;;;;;;21.33;10.25;;;7.60;99.90;;;;;;5057081;28;20060;-75
2022/04/16 06:08:46;;;;;;;21.20;10.02;;;7.70;99.90;;;;;;5057474;28;20021;-75
2022/04/16 06:11:12;;;;;;;20.35;9.68;;;7.80;99.90;;;;;;5057057;28;20521;-75
2022/04/16 06:13:38;;;;;;;24.15;10.85;;;7.80;99.90;;;;;;5057128;28;20025;-75
2022/04/16 06:16:06;;;;;;;21.60;11.05;;;7.90;99.90;;;;;;5039133;28;20021;-75
2022/04/16 06:18:31;;;;;;;19.70;10.10;;;8.00;99.90;;;;;;5057282;28;20049;-75
2022/04/16 06:20:57;;;;;;;20.60;9.95;;;8.10;99.90;;;;;;5056809;28;20064;-75
2022/04/16 06:23:23;;;;;;;21.65;10.40;;;8.20;99.90;;;;;;5056805;28;20029;-75
2022/04/16 06:25:49;;;;;;;19.30;10.30;;;8.30;99.90;;;;;;5056857;28;20021;-75
2022/04/16 06:28:14;;;;;;;22.23;10.57;;;8.40;99.90;;;;;;5056746;28;20470;-75
2022/04/16 06:30:40;;;;;;;25.63;11.35;;;8.40;99.90;;;;;;5057262;28;20021;-75
2022/04/16 06:33:06;;;;;;;22.88;10.70;;;8.50;99.90;;;;;;5056741;28;20029;-75
2022/04/16 06:35:31;;;;;;;26.90;10.40;;;8.60;99.90;;;;;;5038970;28;20029;-75
2022/04/16 06:37:57;;;;;;;22.48;10.27;;;8.70;99.90;;;;;;5057207;28;20028;-75
2022/04/16 06:40:22;;;;;;;23.23;10.60;;;8.70;99.90;;;;;;5038497;28;20060;-75
2022/04/16 06:42:48;;;;;;;23.10;11.00;;;8.80;99.90;;;;;;5056526;28;20107;-75
2022/04/16 06:45:14;;;;;;;24.05;11.63;;;8.90;99.90;;;;;;5038667;28;20017;-75
2022/04/16 06:47:40;;;;;;;22.15;11.40;;;8.90;99.90;;;;;;5056399;28;20025;-75
2022/04/16 06:50:07;;;;;;;27.50;10.50;;;9.00;99.90;;;;;;5056432;28;20100;-76
2022/04/16 06:52:33;;;;;;;22.55;12.15;;;9.00;99.90;;;;;;5038463;28;20056;-76
2022/04/16 06:54:59;;;;;;;26.92;11.45;;;9.10;99.90;;;;;;5056955;28;20114;-76
2022/04/16 06:57:25;;;;;;;23.13;11.43;;;9.20;99.90;;;;;;5038491;28;20033;-76
2022/04/16 06:59:50;;;;;;;26.40;11.80;;;9.20;99.90;;;;;;5056083;28;20021;-76
2022/04/16 07:02:16;;;;;;;25.70;12.07;;;9.30;99.90;;;;;;5056103;28;20091;-75
2022/04/16 07:04:42;;;;;;;25.42;12.45;;;9.40;99.90;;;;;;5038434;28;20024;-76
2022/04/16 07:07:10;;;;;;;25.48;11.05;;;9.50;99.90;;;;;;5056385;28;20021;-76
2022/04/16 07:09:39;;;;;;;22.27;10.80;;;9.50;99.90;;;;;;5056057;28;20100;-75
2022/04/16 07:12:07;;;;;;;29.63;12.25;;;9.50;99.90;;;;;;5056414;28;20371;-75
2022/04/16 07:14:33;;;;;;;24.27;11.77;;;9.50;99.90;;;;;;5054920;28;20071;-76
2022/04/16 07:17:00;;;;;;;25.58;12.20;;;9.60;99.90;;;;;;5056697;28;20051;-77
2022/04/16 07:19:27;;;;;;;23.30;10.85;;;9.70;99.90;;;;;;5038626;28;20390;-76
2022/04/16 07:21:55;;;;;;;25.77;12.38;;;9.70;99.90;;;;;;5046953;23;20040;-77
2022/04/16 07:24:28;;;;;;;26.40;12.05;;;9.60;99.90;;;;;;5056153;28;20070;-76
2022/04/16 07:26:54;;;;;;;25.00;12.98;;;10.00;99.90;;;;;;5056223;28;20048;-77
2022/04/16 07:29:21;;;;;;;29.20;12.95;;;9.80;99.90;;;;;;5056296;28;20110;-76
2022/04/16 07:31:47;;;;;;;24.45;11.52;;;9.80;99.90;;;;;;5055811;28;20021;-77
2022/04/16 07:34:13;;;;;;;25.55;11.80;;;9.90;99.90;;;;;;5038211;28;20024;-77
2022/04/16 07:36:39;;;;;;;26.92;13.05;;;10.00;99.90;;;;;;5056013;28;20446;-77
2022/04/16 07:39:08;;;;;;;24.25;11.80;;;10.10;99.90;;;;;;5056497;28;20028;-77
2022/04/16 07:41:33;;;;;;;25.60;11.73;;;10.20;99.90;;;;;;5055848;28;20048;-74
2022/04/16 07:44:03;;;;;;;24.48;11.02;;;10.30;99.90;;;;;;5056221;28;20056;-75
2022/04/16 07:46:29;;;;;;;24.40;11.55;;;10.40;99.90;;;;;;5056049;28;20099;-75
2022/04/16 07:48:57;;;;;;;23.08;10.98;;;10.50;99.90;;;;;;5055633;28;20033;-75
2022/04/16 07:51:23;;;;;;;20.60;10.45;;;10.50;99.90;;;;;;5037606;28;20063;-76
2022/04/16 07:53:48;;;;;;;18.98;9.88;;;10.60;99.90;;;;;;5055825;28;20036;-76
2022/04/16 07:56:14;;;;;;;19.88;10.20;;;10.80;99.90;;;;;;5055385;28;20377;-75
2022/04/16 07:58:40;;;;;;;22.52;10.65;;;10.80;99.90;;;;;;5055668;28;20025;-74
2022/04/16 08:01:06;;;;;;;17.58;8.60;;;10.90;99.90;;;;;;5037629;28;20036;-77
2022/04/16 08:03:32;;;;;;;16.33;8.20;;;11.00;99.90;;;;;;5037822;28;20048;-77
2022/04/16 08:05:57;;;;;;;16.65;8.57;;;11.20;99.90;;;;;;5037890;28;20021;-76
2022/04/16 08:08:23;;;;;;;22.27;9.77;;;11.30;99.90;;;;;;5037558;28;20028;-76
2022/04/16 08:10:51;;;;;;;15.50;7.75;;;11.40;99.90;;;;;;5055140;28;20528;-76
2022/04/16 08:13:18;;;;;;;16.50;7.82;;;11.60;99.90;;;;;;5037243;28;20071;-77
2022/04/16 08:15:45;;;;;;;15.68;7.95;;;11.70;99.90;;;;;;5037032;28;20035;-76
2022/04/16 08:18:11;;;;;;;15.35;7.13;;;11.80;99.90;;;;;;5037087;28;20025;-75
2022/04/16 08:20:37;;;;;;;14.80;7.82;;;12.00;99.90;;;;;;5055384;28;20029;-76
2022/04/16 08:23:05;;;;;;;17.73;8.10;;;12.10;99.90;;;;;;5054973;28;20490;-76
2022/04/16 08:27:57;;;;;;;13.80;7.00;;;12.20;99.90;;;;;;5055141;28;19904;-76
2022/04/16 08:30:22;;;;;;;16.75;7.95;;;12.30;99.90;;;;;;5054632;28;20025;-75
2022/04/16 08:32:48;;;;;;;14.80;7.05;;;12.40;99.90;;;;;;5054446;28;20113;-76
2022/04/16 08:35:16;;;;;;;14.93;6.68;;;12.50;99.90;;;;;;5054833;28;20123;-76
2022/04/16 08:37:43;;;;;;;11.60;6.22;;;12.60;99.90;;;;;;5036950;28;20124;-76
2022/04/16 08:40:09;;;;;;;12.23;6.32;;;12.70;99.90;;;;;;5037272;28;20485;-76
2022/04/16 08:42:37;;;;;;;11.77;6.47;;;12.90;99.90;;;;;;5055305;28;20044;-76
2022/04/16 08:45:05;;;;;;;11.45;5.93;;;13.00;99.90;;;;;;5054827;28;20051;-77
2022/04/16 08:47:31;;;;;;;14.65;7.38;;;13.00;99.90;;;;;;5037289;28;20389;-75
2022/04/16 08:49:57;;;;;;;11.30;6.00;;;13.20;99.90;;;;;;5037741;28;20070;-78
2022/04/16 08:52:24;;;;;;;11.57;6.20;;;13.30;99.90;;;;;;5036853;28;20033;-78
2022/04/16 08:54:50;;;;;;;12.48;6.45;;;13.40;99.90;;;;;;5054908;28;20021;-77
2022/04/16 08:57:15;;;;;;;12.57;6.40;;;13.50;99.90;;;;;;5054633;28;20029;-77
2022/04/16 08:59:54;;;;;;;11.65;5.88;;;13.60;99.90;;;;;;5055049;28;20052;-78
2022/04/16 09:02:27;;;;;;;10.20;5.60;;;13.70;99.90;;;;;;5036321;28;20127;-77
2022/04/16 09:05:05;;;;;;;11.10;5.78;;;13.70;99.90;;;;;;5036609;28;20390;-77
2022/04/16 09:07:31;;;;;;;11.18;5.43;;;13.80;99.90;;;;;;5054781;28;20021;-77
2022/04/16 09:10:15;;;;;;;10.43;5.10;;;13.90;99.90;;;;;;5054162;28;20031;-76
2022/04/16 09:12:41;;;;;;;8.20;4.47;;;14.00;99.90;;;;;;5053815;28;20029;-77
2022/04/16 09:15:13;;;;;;;9.00;4.55;;;14.10;99.90;;;;;;5054588;28;20040;-77
2022/04/16 09:17:39;;;;;;;10.25;4.97;;;14.10;99.90;;;;;;5054513;28;20028;-77
2022/04/16 09:20:14;;;;;;;11.77;4.88;;;14.30;99.90;;;;;;5054737;28;20029;-78
2022/04/16 09:22:41;;;;;;;8.98;4.63;;;14.30;99.90;;;;;;5054531;28;20028;-77
2022/04/16 09:25:14;;;;;;;9.00;4.43;;;14.40;99.90;;;;;;5036217;28;20064;-77
2022/04/16 09:27:43;;;;;;;10.02;5.07;;;14.60;99.90;;;;;;5053525;28;20071;-74
2022/04/16 09:30:09;;;;;;;8.90;3.97;;;14.70;99.90;;;;;;5053393;28;20027;-75
2022/04/16 09:32:45;;;;;;;11.65;4.47;;;14.80;99.90;;;;;;5053313;28;20029;-75
2022/04/16 09:35:33;;;;;;;7.90;3.65;;;14.80;99.90;;;;;;5036100;28;20021;-75
2022/04/16 09:38:00;;;;;;;7.68;4.45;;;14.90;99.90;;;;;;5034766;28;20021;-75
2022/04/16 09:40:34;;;;;;;7.72;3.13;;;15.00;99.90;;;;;;5053079;28;20115;-75
2022/04/16 09:43:01;;;;;;;7.03;3.65;;;15.10;99.60;;;;;;5053296;28;20096;-76
2022/04/16 09:45:28;;;;;;;7.00;2.97;;;15.10;98.50;;;;;;5053586;28;20017;-76
2022/04/16 09:47:55;;;;;;;7.60;2.97;;;15.20;99.00;;;;;;5035210;28;20055;-76
2022/04/16 09:50:26;;;;;;;6.70;2.80;;;15.20;97.20;;;;;;5053126;28;20029;-76
2022/04/16 09:52:56;;;;;;;5.80;2.47;;;15.20;96.70;;;;;;5053226;28;20052;-76
2022/04/16 09:55:24;;;;;;;4.47;2.15;;;15.20;96.20;;;;;;5035355;28;20021;-76
2022/04/16 09:57:53;;;;;;;4.57;1.75;;;15.20;96.10;;;;;;5053001;28;20017;-76
2022/04/16 10:00:19;;;;;;;4.88;2.00;;;15.40;94.30;;;;;;5035085;28;20028;-76
2022/04/16 10:02:46;;;;;;;4.15;1.67;;;15.40;92.80;;;;;;5035006;28;20017;-76
2022/04/16 10:05:12;;;;;;;2.83;0.95;;;15.50;91.30;;;;;;5053255;28;20389;-75
2022/04/16 10:07:38;;;;;;;1.65;1.13;;;16.80;92.00;;;;;;5053092;28;20021;-75
2022/04/16 10:10:17;;;;;;;4.25;1.25;;;16.40;86.60;;;;;;5053049;28;20029;-75
2022/04/16 10:13:00;;;;;;;4.53;1.45;;;16.20;88.10;;;;;;5035290;28;20036;-75
2022/04/16 10:15:41;;;;;;;7.25;1.92;;;16.30;85.30;;;;;;5035195;28;20115;-75
2022/04/16 10:18:09;;;;;;;5.53;1.63;;;16.50;83.30;;;;;;5053067;28;20078;-76
2022/04/16 10:20:34;;;;;;;4.43;1.60;;;16.70;80.10;;;;;;5052715;28;20025;-77
2022/04/16 10:23:07;;;;;;;4.32;1.70;;;16.70;79.10;;;;;;5035509;28;20075;-78
2022/04/16 10:25:41;;;;;;;2.75;1.40;;;16.70;78.90;;;;;;5053571;28;20029;-77
2022/04/16 10:28:10;;;;;;;2.75;1.27;;;16.60;78.20;;;;;;5035462;28;20013;-77
2022/04/16 10:30:56;;;;;;;2.47;0.90;;;16.50;77.60;;;;;;5053171;28;20158;-77
2022/04/16 10:33:27;;;;;;;3.42;1.08;;;16.40;78.30;;;;;;5052498;28;20045;-77
2022/04/16 10:36:00;;;;;;;1.77;1.10;;;16.60;78.30;;;;;;5052829;28;20032;-77
2022/04/16 10:38:35;;;;;;;3.30;1.10;;;16.70;75.80;;;;;;5053676;28;20104;-77
2022/04/16 10:41:09;;;;;;;2.95;1.17;;;16.90;75.00;;;;;;5053069;28;20025;-76
2022/04/16 10:43:37;;;;;;;3.08;0.95;;;17.10;75.60;;;;;;5034840;28;20111;-77
2022/04/16 10:46:08;;;;;;;3.22;0.70;;;17.80;68.70;;;;;;5052736;28;20029;-76
2022/04/16 10:48:38;;;;;;;0.90;0.20;;;17.30;68.90;;;;;;5037144;28;20020;-80
2022/04/16 10:51:08;;;;;;;0.50;0.22;;;17.30;67.10;;;;;;5056693;28;20063;-76
2022/04/16 10:53:35;;;;;;;2.10;0.50;;;17.40;68.40;;;;;;5056657;28;20052;-76
2022/04/16 10:56:14;;;;;;;1.38;0.57;;;17.40;67.60;;;;;;5038360;28;20025;-76
2022/04/16 10:58:46;;;;;;;3.90;0.65;;;17.60;66.80;;;;;;5056215;28;20028;-76
2022/04/16 11:01:13;;;;;;;1.73;0.63;;;17.60;63.40;;;;;;5056212;28;20037;-76
2022/04/16 11:03:45;;;;;;;1.48;0.68;;;17.70;65.30;;;;;;5038247;28;20067;-76
2022/04/16 11:06:11;;;;;;;1.42;0.50;;;17.50;62.80;;;;;;5056241;28;20048;-76
2022/04/16 11:08:38;;;;;;;2.85;0.82;;;17.60;67.20;;;;;;5056470;28;20096;-76
2022/04/16 11:11:04;;;;;;;1.00;0.50;;;18.10;65.20;;;;;;5057364;28;20461;-75
2022/04/16 11:13:30;;;;;;;2.50;0.73;;;17.70;65.00;;;;;;5056488;28;20025;-76
2022/04/16 11:15:58;;;;;;;2.05;0.63;;;17.80;65.90;;;;;;5055965;28;20474;-74
2022/04/16 11:18:24;;;;;;;1.85;1.00;;;18.00;65.10;;;;;;5056115;28;20020;-76
2022/04/16 11:20:56;;;;;;;2.08;0.60;;;18.00;65.00;;;;;;5037910;28;20158;-75
2022/04/16 11:23:26;;;;;;;2.15;1.02;;;18.10;64.60;;;;;;5038150;28;20021;-73
2022/04/16 11:34:14;;;;;;;1.23;0.50;;;18.30;63.60;;;;;;5055610;28;20079;-74
2022/04/16 11:36:40;;;;;;;1.83;0.77;;;18.60;61.50;;;;;;5055502;28;20482;-74
2022/04/16 11:39:15;;;;;;;1.95;0.40;;;18.70;62.10;;;;;;5055539;28;20021;-74
2022/04/16 11:41:55;;;;;;;1.70;0.57;;;18.90;61.10;;;;;;5037486;28;20025;-73
2022/04/16 11:44:43;;;;;;;2.22;0.68;;;19.20;62.10;;;;;;5037617;28;20516;-74
2022/04/16 11:47:09;;;;;;;1.60;0.73;;;19.40;59.30;;;;;;5055340;28;20508;-74
2022/04/16 11:49:40;;;;;;;2.33;1.08;;;19.50;57.80;;;;;;5055260;28;20275;-74
2022/04/16 11:52:06;;;;;;;2.08;0.90;;;19.60;58.20;;;;;;5055158;28;20025;-74
2022/04/16 11:54:32;;;;;;;2.80;1.10;;;19.60;57.60;;;;;;5055185;28;20486;-74
2022/04/16 11:56:58;;;;;;;2.88;0.77;;;19.60;57.20;;;;;;5055552;28;20024;-74
2022/04/16 11:59:28;;;;;;;37.08;2.75;;;19.60;56.20;;;;;;5055668;28;20055;-74
2022/04/16 12:02:05;;;;;;;2.05;1.13;;;19.80;58.50;;;;;;5054685;28;20048;-74
2022/04/16 12:04:38;;;;;;;1.98;0.77;;;19.80;57.70;;;;;;5055726;28;20080;-74
2022/04/16 12:07:17;;;;;;;2.40;0.80;;;20.10;56.40;;;;;;5055053;28;20072;-74
2022/04/16 12:09:45;;;;;;;2.67;0.82;;;20.20;55.60;;;;;;5037013;28;20017;-74
2022/04/16 12:12:18;;;;;;;2.60;1.23;;;20.40;54.90;;;;;;5055312;28;20025;-74
2022/04/16 12:14:48;;;;;;;4.03;0.80;;;20.40;54.40;;;;;;5055467;28;20492;-74
2022/04/16 12:17:29;;;;;;;3.15;1.05;;;20.50;54.40;;;;;;5055192;28;20429;-75
2022/04/16 12:20:05;;;;;;;2.83;1.00;;;20.60;55.00;;;;;;5054888;28;20447;-74
2022/04/16 12:22:44;;;;;;;1.60;0.60;;;20.70;53.50;;;;;;5036837;28;20033;-74
2022/04/16 12:25:11;;;;;;;1.67;0.85;;;20.70;53.90;;;;;;5054797;28;20059;-75
2022/04/16 12:27:43;;;;;;;2.83;1.13;;;20.70;52.60;;;;;;5054691;28;20029;-74
2022/04/16 12:30:12;;;;;;;3.05;0.85;;;20.70;52.60;;;;;;5054958;28;20021;-74
2022/04/16 12:32:39;;;;;;;1.92;0.88;;;20.80;52.70;;;;;;5054600;28;20036;-74
2022/04/16 12:35:04;;;;;;;3.03;0.98;;;21.00;53.20;;;;;;5036425;28;20054;-74
2022/04/16 12:37:30;;;;;;;1.88;0.80;;;21.00;53.10;;;;;;5036810;28;20390;-74
2022/04/16 12:39:56;;;;;;;1.50;1.05;;;21.00;51.40;;;;;;5054407;28;20032;-74
2022/04/16 12:42:21;;;;;;;1.95;1.35;;;21.10;51.90;;;;;;5054289;28;20021;-74
2022/04/16 12:44:47;;;;;;;1.00;0.28;;;21.00;51.60;;;;;;5054489;28;20028;-74
2022/04/16 12:47:14;;;;;;;2.53;0.90;;;21.00;52.10;;;;;;5054448;28;20049;-74
2022/04/16 12:49:39;;;;;;;2.47;0.98;;;21.00;51.80;;;;;;5054435;28;20025;-74
2022/04/16 12:52:05;;;;;;;1.90;0.70;;;21.10;50.00;;;;;;5054276;28;20021;-74
2022/04/16 12:54:31;;;;;;;1.67;0.70;;;21.10;50.30;;;;;;5054320;28;20025;-75
2022/04/16 12:56:56;;;;;;;3.30;1.20;;;21.50;51.30;;;;;;5054603;28;20025;-74
2022/04/16 12:59:22;;;;;;;2.45;0.85;;;21.80;50.00;;;;;;5054040;28;20111;-74
2022/04/16 13:01:48;;;;;;;1.17;0.40;;;21.80;48.70;;;;;;5054110;28;20381;-74
2022/04/16 13:04:13;;;;;;;0.98;0.68;;;21.90;49.40;;;;;;5054265;28;20138;-75
2022/04/16 13:06:39;;;;;;;3.08;0.60;;;22.10;49.20;;;;;;5053730;28;20447;-74
2022/04/16 13:09:04;;;;;;;0.88;0.50;;;22.30;48.30;;;;;;5054555;28;20029;-74
2022/04/16 13:11:31;;;;;;;1.08;0.52;;;22.50;47.70;;;;;;5053660;28;20021;-74
2022/04/16 13:13:57;;;;;;;2.28;0.70;;;22.50;46.10;;;;;;5053962;28;20474;-73